Time;durP1;ratioP1;P1;durP2;ratioP2;P2;SDS_P1;SDS_P2;PMS_P1;PMS_P2;Temp;Humidity;BMP_temperature;BMP_pressure;BME280_temperature;BME280_humidity;BME280_pressure;Samples;Min_cycle;Max_cycle;Signal;HPM_P1;HPM_P2
2023/11/17 00:02:13;;;;;;;6.43;5.20;;;24.30;99.90;;;;;;5012010;28;20590;-55
2023/11/17 00:04:38;;;;;;;7.50;5.50;;;24.30;99.90;;;;;;5012279;28;20022;-55
2023/11/17 00:07:04;;;;;;;7.07;5.47;;;24.30;99.90;;;;;;5012345;28;20033;-55
2023/11/17 00:09:30;;;;;;;5.55;4.75;;;24.30;99.90;;;;;;5012267;28;20014;-55
2023/11/17 00:11:56;;;;;;;6.82;5.75;;;24.30;99.90;;;;;;4994598;28;20037;-55
2023/11/17 00:14:21;;;;;;;6.53;5.25;;;24.30;99.90;;;;;;5012113;28;20045;-54
2023/11/17 00:16:47;;;;;;;6.80;5.30;;;24.30;99.90;;;;;;5010898;28;20112;-55
2023/11/17 00:19:14;;;;;;;5.72;4.43;;;24.30;99.90;;;;;;5011080;28;20037;-54
2023/11/17 00:21:40;;;;;;;6.05;5.13;;;24.30;99.90;;;;;;5012120;28;20137;-55
2023/11/17 00:24:06;;;;;;;6.05;4.82;;;24.30;99.90;;;;;;5012283;28;20054;-54
2023/11/17 00:26:33;;;;;;;7.90;5.57;;;24.30;99.90;;;;;;4994496;28;20036;-55
2023/11/17 00:29:00;;;;;;;5.53;4.93;;;24.30;99.90;;;;;;5012021;28;20029;-55
2023/11/17 00:31:25;;;;;;;6.73;5.53;;;24.30;99.90;;;;;;5010891;28;20423;-54
2023/11/17 00:33:52;;;;;;;6.35;4.88;;;24.30;99.90;;;;;;5012084;28;20108;-54
2023/11/17 00:36:18;;;;;;;6.47;5.70;;;24.20;99.90;;;;;;5015466;28;20100;-55
2023/11/17 00:38:43;;;;;;;6.38;5.10;;;24.30;99.90;;;;;;5015529;28;20053;-55
2023/11/17 00:41:09;;;;;;;8.07;5.03;;;24.20;99.90;;;;;;5015360;28;20179;-55
2023/11/17 00:43:36;;;;;;;6.13;5.53;;;24.20;99.90;;;;;;5015895;28;20025;-55
2023/11/17 00:46:03;;;;;;;6.43;5.18;;;24.20;99.90;;;;;;5015567;28;20049;-54
2023/11/17 00:48:30;;;;;;;7.00;4.57;;;24.20;99.90;;;;;;5014938;28;20018;-55
2023/11/17 00:50:57;;;;;;;6.57;5.37;;;24.20;99.90;;;;;;5015025;28;20026;-55
2023/11/17 00:53:25;;;;;;;6.43;5.20;;;24.20;99.90;;;;;;5015424;28;20026;-54
2023/11/17 00:56:01;;;;;;;6.47;4.88;;;24.20;99.90;;;;;;5015265;28;20064;-55
2023/11/17 00:58:27;;;;;;;6.32;5.28;;;24.20;99.90;;;;;;5015122;28;20498;-54
2023/11/17 01:00:56;;;;;;;7.22;5.10;;;24.10;99.90;;;;;;5014862;28;20072;-54
2023/11/17 01:03:23;;;;;;;5.60;5.03;;;24.20;99.90;;;;;;5015030;28;20441;-54
2023/11/17 01:05:49;;;;;;;7.47;5.80;;;24.20;99.90;;;;;;5015049;28;20390;-54
2023/11/17 01:08:15;;;;;;;6.55;5.45;;;24.10;99.90;;;;;;5015077;28;20084;-54
2023/11/17 01:10:41;;;;;;;7.32;5.90;;;24.10;99.90;;;;;;5014981;28;20022;-54
2023/11/17 01:13:07;;;;;;;5.68;4.82;;;24.10;99.90;;;;;;5015151;28;20037;-54
2023/11/17 01:15:35;;;;;;;6.70;5.03;;;24.10;99.90;;;;;;5014797;28;20072;-54
2023/11/17 01:18:06;;;;;;;7.07;6.07;;;24.10;99.90;;;;;;5014946;28;20038;-54
2023/11/17 01:20:36;;;;;;;6.82;6.05;;;24.10;99.90;;;;;;4996979;28;20440;-54
2023/11/17 01:23:03;;;;;;;6.63;5.90;;;24.10;99.90;;;;;;5014916;28;20421;-54
2023/11/17 01:25:32;;;;;;;8.40;6.43;;;24.10;99.90;;;;;;5014734;28;20028;-54
2023/11/17 01:27:59;;;;;;;12.00;6.75;;;24.10;99.90;;;;;;5014699;28;20274;-54
2023/11/17 01:30:25;;;;;;;7.53;5.90;;;24.00;99.90;;;;;;5014697;28;20521;-54
2023/11/17 01:32:51;;;;;;;8.38;6.93;;;24.00;99.90;;;;;;5014627;28;20109;-54
2023/11/17 01:35:18;;;;;;;9.70;7.47;;;24.00;99.90;;;;;;5014531;28;20470;-54
2023/11/17 01:37:44;;;;;;;9.00;6.72;;;24.10;99.90;;;;;;5014423;28;20022;-54
2023/11/17 01:40:10;;;;;;;8.02;6.57;;;24.00;99.90;;;;;;5014647;28;20125;-54
2023/11/17 01:42:39;;;;;;;8.55;7.28;;;24.00;99.90;;;;;;5014405;28;20026;-55
2023/11/17 01:45:08;;;;;;;8.25;6.57;;;24.00;99.90;;;;;;5012543;28;20042;-55
2023/11/17 01:47:42;;;;;;;8.88;7.07;;;24.00;99.90;;;;;;5014156;28;20045;-54
2023/11/17 01:50:14;;;;;;;8.57;6.72;;;24.00;99.90;;;;;;5014337;28;20026;-54
2023/11/17 01:52:42;;;;;;;9.32;6.90;;;24.00;99.90;;;;;;5014349;28;20029;-55
2023/11/17 01:55:09;;;;;;;10.13;7.40;;;24.00;99.90;;;;;;4996573;28;20030;-55
2023/11/17 01:57:38;;;;;;;9.90;7.35;;;24.00;99.90;;;;;;5014079;28;20014;-55
2023/11/17 02:02:45;;;;;;;9.60;7.00;;;23.90;99.90;;;;;;5052215;28;20044;-48
2023/11/17 02:05:14;;;;;;;8.32;6.47;;;23.90;99.90;;;;;;5053919;28;20035;-48
2023/11/17 02:07:50;;;;;;;9.52;6.78;;;23.90;99.90;;;;;;5035902;28;20044;-47
2023/11/17 02:10:36;;;;;;;10.97;7.47;;;23.90;99.90;;;;;;5053617;28;20465;-48
2023/11/17 02:13:25;;;;;;;9.60;6.80;;;23.90;99.90;;;;;;5053530;28;20033;-48
2023/11/17 02:15:56;;;;;;;9.10;7.30;;;23.90;99.90;;;;;;5053543;28;20025;-48
2023/11/17 02:18:25;;;;;;;9.43;7.25;;;23.90;99.90;;;;;;5053460;28;20492;-48
2023/11/17 02:20:53;;;;;;;7.50;6.40;;;23.90;99.90;;;;;;5018844;28;20040;-49
2023/11/17 02:23:24;;;;;;;10.38;7.07;;;23.90;99.90;;;;;;5053639;28;20420;-48
2023/11/17 02:26:22;;;;;;;10.05;7.65;;;23.90;99.90;;;;;;5053265;28;20393;-49
2023/11/17 02:29:10;;;;;;;9.25;7.50;;;23.80;99.90;;;;;;5052964;28;20037;-48
2023/11/17 02:31:39;;;;;;;8.25;7.32;;;23.90;99.90;;;;;;5053168;28;20021;-48
2023/11/17 02:34:08;;;;;;;11.25;8.07;;;23.90;99.90;;;;;;5053219;28;20024;-48
2023/11/17 02:36:36;;;;;;;10.35;7.50;;;23.80;99.90;;;;;;5051881;28;20047;-48
2023/11/17 02:39:21;;;;;;;7.85;6.93;;;23.80;99.90;;;;;;5052371;28;20051;-48
2023/11/17 02:41:56;;;;;;;9.25;7.35;;;23.80;99.90;;;;;;5051995;28;20048;-48
2023/11/17 02:44:28;;;;;;;9.18;7.50;;;23.80;99.90;;;;;;5051378;28;20052;-49
2023/11/17 02:46:58;;;;;;;9.20;7.50;;;23.80;99.90;;;;;;5052898;28;20029;-49
2023/11/17 02:49:46;;;;;;;10.90;8.10;;;23.80;99.90;;;;;;5052846;28;20021;-48
2023/11/17 02:52:20;;;;;;;9.77;7.82;;;23.80;99.90;;;;;;5052853;28;20086;-49
2023/11/17 02:54:47;;;;;;;9.00;7.47;;;23.80;99.90;;;;;;5053054;28;20067;-48
2023/11/17 02:57:15;;;;;;;10.00;7.32;;;23.80;99.90;;;;;;5052079;28;20055;-48
2023/11/17 02:59:43;;;;;;;9.15;7.97;;;23.80;99.90;;;;;;5051605;28;20044;-48
2023/11/17 03:02:15;;;;;;;9.77;7.78;;;23.80;99.90;;;;;;5079424;22;20094;-55
2023/11/17 03:04:42;;;;;;;10.07;7.95;;;23.80;99.90;;;;;;5071490;28;20064;-53
2023/11/17 03:07:08;;;;;;;9.38;7.72;;;23.80;99.90;;;;;;5069624;28;20032;-53
2023/11/17 03:09:34;;;;;;;8.63;7.38;;;23.80;99.90;;;;;;5071826;28;20033;-52
2023/11/17 03:12:00;;;;;;;8.77;7.07;;;23.80;99.90;;;;;;5070377;28;20021;-53
2023/11/17 03:14:27;;;;;;;9.80;7.70;;;23.80;99.90;;;;;;5071162;28;20021;-53
2023/11/17 03:16:58;;;;;;;8.98;7.90;;;23.80;99.90;;;;;;5052563;28;20021;-53
2023/11/17 03:19:25;;;;;;;9.23;8.23;;;23.80;99.90;;;;;;5071181;28;20073;-54
2023/11/17 03:21:54;;;;;;;11.00;8.02;;;23.80;99.90;;;;;;5071277;28;20047;-53
2023/11/17 03:24:23;;;;;;;9.30;8.10;;;23.80;99.90;;;;;;5071653;28;20020;-53
2023/11/17 03:26:53;;;;;;;11.35;8.23;;;23.70;99.90;;;;;;5070052;28;20468;-53
2023/11/17 03:29:19;;;;;;;10.40;7.72;;;23.80;99.90;;;;;;5052638;28;20025;-53
2023/11/17 03:31:52;;;;;;;10.07;8.07;;;23.70;99.90;;;;;;5071503;28;20020;-53
2023/11/17 03:34:28;;;;;;;9.45;7.25;;;23.70;99.90;;;;;;5071235;28;20036;-56
2023/11/17 03:37:00;;;;;;;12.38;8.30;;;23.80;99.90;;;;;;5071378;28;20016;-53
2023/11/17 03:39:27;;;;;;;10.38;7.82;;;23.80;99.90;;;;;;5052547;28;20025;-53
2023/11/17 03:41:54;;;;;;;13.55;8.50;;;23.80;99.90;;;;;;5053616;28;20025;-53
2023/11/17 03:44:27;;;;;;;10.05;7.80;;;23.80;99.90;;;;;;5070292;28;20029;-53
2023/11/17 03:46:57;;;;;;;11.82;7.45;;;23.70;99.90;;;;;;5069963;28;20279;-53
2023/11/17 03:49:24;;;;;;;13.73;8.77;;;23.80;99.90;;;;;;5071332;28;20052;-53
2023/11/17 03:51:53;;;;;;;11.05;7.82;;;23.80;99.90;;;;;;5053315;28;20067;-53
2023/11/17 03:54:21;;;;;;;11.27;7.90;;;23.80;99.90;;;;;;5071435;28;20139;-56
2023/11/17 03:56:54;;;;;;;10.77;8.00;;;23.80;99.90;;;;;;5053164;28;20028;-54
2023/11/17 03:59:21;;;;;;;11.20;7.75;;;23.80;99.90;;;;;;5071917;28;20059;-54
2023/11/17 04:01:49;;;;;;;12.95;8.15;;;23.80;99.90;;;;;;5072346;28;20051;-54
2023/11/17 04:04:17;;;;;;;12.23;8.52;;;23.80;99.90;;;;;;5072135;28;20032;-54
2023/11/17 04:06:49;;;;;;;11.95;8.13;;;23.80;99.90;;;;;;5071821;28;20100;-54
2023/11/17 04:09:16;;;;;;;10.27;8.18;;;23.70;99.90;;;;;;5074157;28;20056;-55
2023/11/17 04:11:45;;;;;;;10.50;8.20;;;23.80;99.90;;;;;;5075797;28;20041;-54
2023/11/17 04:14:15;;;;;;;12.90;8.85;;;23.70;99.90;;;;;;5075780;28;20261;-54
2023/11/17 04:16:41;;;;;;;11.73;8.40;;;23.70;99.90;;;;;;5075745;28;20029;-54
2023/11/17 04:19:07;;;;;;;11.05;7.95;;;23.80;99.90;;;;;;5075620;28;20437;-55
2023/11/17 04:21:34;;;;;;;11.65;8.40;;;23.70;99.90;;;;;;5075548;28;20419;-55
2023/11/17 04:24:00;;;;;;;14.43;8.75;;;23.80;99.90;;;;;;5075450;28;20091;-54
2023/11/17 04:26:25;;;;;;;12.20;8.85;;;23.70;99.90;;;;;;5075500;28;20078;-54
2023/11/17 04:28:51;;;;;;;12.50;8.45;;;23.70;99.90;;;;;;5075536;28;20052;-55
2023/11/17 04:31:18;;;;;;;12.63;9.25;;;23.70;99.90;;;;;;5075621;28;20028;-55
2023/11/17 04:33:44;;;;;;;13.90;8.93;;;23.70;99.90;;;;;;5075385;28;20024;-54
2023/11/17 04:36:10;;;;;;;13.95;9.52;;;23.70;99.90;;;;;;5075142;28;20044;-54
2023/11/17 04:38:38;;;;;;;14.18;9.52;;;23.70;99.90;;;;;;5075195;28;20048;-54
2023/11/17 04:41:05;;;;;;;13.07;9.02;;;23.70;99.90;;;;;;5075156;28;20048;-54
2023/11/17 04:43:30;;;;;;;12.40;9.27;;;23.70;99.90;;;;;;5075203;28;20099;-54
2023/11/17 04:45:56;;;;;;;12.90;8.68;;;23.70;99.90;;;;;;5075187;28;20063;-54
2023/11/17 04:48:23;;;;;;;12.75;9.95;;;23.70;99.90;;;;;;5075173;28;20029;-55
2023/11/17 04:50:49;;;;;;;13.65;9.13;;;23.70;99.90;;;;;;5075242;28;20021;-54
2023/11/17 04:53:14;;;;;;;12.63;9.23;;;23.70;99.90;;;;;;5074991;28;20027;-54
2023/11/17 04:55:44;;;;;;;15.52;9.55;;;23.70;99.90;;;;;;5074963;28;20033;-54
2023/11/17 04:58:13;;;;;;;10.50;8.13;;;23.70;99.90;;;;;;5056957;28;20469;-54
2023/11/17 05:00:40;;;;;;;11.00;8.40;;;23.70;99.90;;;;;;5075043;28;20064;-54
2023/11/17 05:03:06;;;;;;;13.30;9.13;;;23.70;99.90;;;;;;5074649;28;20107;-55
2023/11/17 05:05:33;;;;;;;12.43;8.43;;;23.70;99.90;;;;;;5074695;28;20112;-53
2023/11/17 05:07:59;;;;;;;12.73;8.32;;;23.70;99.90;;;;;;5074879;28;20017;-54
2023/11/17 05:10:26;;;;;;;14.45;9.25;;;23.70;99.90;;;;;;5074787;28;20396;-54
2023/11/17 05:12:53;;;;;;;11.80;8.68;;;23.70;99.90;;;;;;5074951;28;20024;-53
2023/11/17 05:15:21;;;;;;;11.75;8.10;;;23.70;99.90;;;;;;5074774;28;20024;-53
2023/11/17 05:17:48;;;;;;;;;;;23.70;99.90;;;;;;5074919;28;20036;-53
2023/11/17 05:20:15;;;;;;;;;;;23.70;99.90;;;;;;5073652;28;19927;-53
2023/11/17 05:22:42;;;;;;;13.50;8.15;;;23.70;99.90;;;;;;5074439;28;19991;-54
2023/11/17 05:25:08;;;;;;;11.40;7.82;;;23.70;99.90;;;;;;5074369;28;20031;-53
2023/11/17 05:27:36;;;;;;;15.10;8.20;;;23.60;99.90;;;;;;5074455;28;20449;-53
2023/11/17 05:30:04;;;;;;;10.80;7.93;;;23.70;99.90;;;;;;5074291;28;20028;-53
2023/11/17 05:32:40;;;;;;;12.50;7.88;;;23.70;99.90;;;;;;5074150;28;20036;-54
2023/11/17 05:35:07;;;;;;;9.95;7.38;;;23.70;99.90;;;;;;5074255;28;20051;-54
2023/11/17 05:37:36;;;;;;;10.75;8.30;;;23.60;99.90;;;;;;5056238;28;20024;-54
2023/11/17 05:40:06;;;;;;;11.90;8.73;;;23.60;99.90;;;;;;5056079;28;20028;-54
2023/11/17 05:42:32;;;;;;;10.98;8.35;;;23.60;99.90;;;;;;5074034;28;20162;-54
2023/11/17 05:44:57;;;;;;;10.07;7.68;;;23.60;99.90;;;;;;5074014;28;20500;-52
2023/11/17 05:47:23;;;;;;;10.85;8.23;;;23.60;99.90;;;;;;5074264;28;20037;-53
2023/11/17 05:49:49;;;;;;;9.40;7.60;;;23.70;99.90;;;;;;5073930;28;20375;-53
2023/11/17 05:52:16;;;;;;;10.20;7.65;;;23.60;99.90;;;;;;5073792;28;20622;-52
2023/11/17 05:54:46;;;;;;;13.60;8.93;;;23.60;99.90;;;;;;5055829;28;20054;-53
2023/11/17 05:57:19;;;;;;;11.90;8.02;;;23.60;99.90;;;;;;5073872;28;20032;-53
2023/11/17 05:59:50;;;;;;;11.55;7.70;;;23.60;99.90;;;;;;5073678;28;20086;-53
2023/11/17 06:02:16;;;;;;;10.38;7.43;;;23.60;99.90;;;;;;5071453;28;20374;-53
2023/11/17 06:04:42;;;;;;;9.73;7.85;;;23.60;99.90;;;;;;5072826;28;20426;-53
2023/11/17 06:07:08;;;;;;;11.30;8.15;;;23.60;99.90;;;;;;5072088;28;20086;-54
2023/11/17 06:09:35;;;;;;;11.55;7.75;;;23.60;99.90;;;;;;5072803;28;20020;-53
2023/11/17 06:12:03;;;;;;;9.05;7.88;;;23.60;99.90;;;;;;5072545;28;20472;-54
2023/11/17 06:14:35;;;;;;;;;;;23.60;99.90;;;;;;5073974;28;20055;-53
2023/11/17 06:17:03;;;;;;;10.80;7.82;;;23.60;99.90;;;;;;5072134;28;19905;-53
2023/11/17 06:19:30;;;;;;;13.57;8.00;;;23.60;99.90;;;;;;5073271;28;20017;-53
2023/11/17 06:21:56;;;;;;;12.63;8.18;;;23.50;99.90;;;;;;5073536;28;20020;-54
2023/11/17 06:24:22;;;;;;;10.48;7.82;;;23.60;99.90;;;;;;5073536;28;20397;-54
2023/11/17 06:26:49;;;;;;;11.45;7.28;;;23.50;99.90;;;;;;5073050;28;20024;-54
2023/11/17 06:29:16;;;;;;;9.50;7.50;;;23.50;99.90;;;;;;5073230;28;20101;-54
2023/11/17 06:31:42;;;;;;;11.57;7.93;;;23.50;99.90;;;;;;5071832;28;20052;-53
2023/11/17 06:34:11;;;;;;;11.52;8.30;;;23.50;99.90;;;;;;5071546;28;20024;-53
2023/11/17 06:36:40;;;;;;;11.15;8.35;;;23.50;99.90;;;;;;5070853;28;20036;-54
2023/11/17 06:39:18;;;;;;;11.07;8.23;;;23.50;99.90;;;;;;5054747;28;20021;-54
2023/11/17 06:41:48;;;;;;;11.52;8.38;;;23.50;99.90;;;;;;5071625;28;20063;-54
2023/11/17 06:44:19;;;;;;;11.02;8.50;;;23.50;99.90;;;;;;5072444;28;20032;-53
2023/11/17 06:46:46;;;;;;;10.88;7.60;;;23.50;99.90;;;;;;5072169;28;20029;-54
2023/11/17 06:49:14;;;;;;;15.95;8.40;;;23.40;99.90;;;;;;5072775;28;20024;-54
2023/11/17 06:51:41;;;;;;;10.73;7.80;;;23.40;99.90;;;;;;5072373;28;20033;-54
2023/11/17 06:54:10;;;;;;;11.43;8.17;;;23.40;99.90;;;;;;5072663;28;20032;-54
2023/11/17 06:56:43;;;;;;;10.35;7.43;;;23.40;99.90;;;;;;5072481;28;20035;-54
2023/11/17 06:59:14;;;;;;;11.80;7.53;;;23.40;99.90;;;;;;5072398;28;20157;-54
2023/11/17 07:01:40;;;;;;;10.35;7.18;;;23.40;99.90;;;;;;5072300;28;20546;-54
2023/11/17 07:04:07;;;;;;;13.02;9.05;;;23.40;99.90;;;;;;5072539;28;20027;-54
2023/11/17 07:06:34;;;;;;;12.02;7.90;;;23.40;99.90;;;;;;5072456;28;20050;-54
2023/11/17 07:09:19;;;;;;;8.35;7.38;;;23.40;99.90;;;;;;5072367;28;20100;-55
2023/11/17 07:11:51;;;;;;;10.32;7.85;;;23.40;99.90;;;;;;5072339;28;20428;-55
2023/11/17 07:14:21;;;;;;;10.20;7.55;;;23.40;99.90;;;;;;5072245;28;20051;-55
2023/11/17 07:16:51;;;;;;;9.93;8.25;;;23.40;99.90;;;;;;5072375;28;20024;-55
2023/11/17 07:19:17;;;;;;;10.43;7.68;;;23.40;99.90;;;;;;5072310;28;20211;-55
2023/11/17 07:21:47;;;;;;;11.50;8.50;;;23.40;99.90;;;;;;5072226;28;20510;-55
2023/11/17 07:24:16;;;;;;;11.20;7.53;;;23.40;99.90;;;;;;5072344;28;20427;-55
2023/11/17 07:26:46;;;;;;;12.15;8.57;;;23.40;99.90;;;;;;5072215;28;20024;-56
2023/11/17 07:29:16;;;;;;;10.00;7.65;;;23.40;99.90;;;;;;5072111;28;20486;-55
2023/11/17 07:31:46;;;;;;;12.40;8.38;;;23.40;99.90;;;;;;5072250;28;20108;-54
2023/11/17 07:34:15;;;;;;;10.68;8.18;;;23.40;99.90;;;;;;5072114;28;20025;-54
2023/11/17 07:36:42;;;;;;;8.52;7.20;;;23.50;99.90;;;;;;5072028;28;20465;-55
2023/11/17 07:39:15;;;;;;;8.15;6.80;;;23.40;99.90;;;;;;5072026;28;20085;-55
2023/11/17 07:41:41;;;;;;;10.15;7.57;;;23.50;99.90;;;;;;5072001;28;20090;-55
2023/11/17 07:44:11;;;;;;;9.55;7.80;;;23.50;99.90;;;;;;5071332;28;20039;-55
2023/11/17 07:46:37;;;;;;;8.88;7.68;;;23.50;99.90;;;;;;5072037;28;20036;-55
2023/11/17 07:49:06;;;;;;;11.50;7.47;;;23.50;99.90;;;;;;5071815;28;20035;-55
2023/11/17 07:51:35;;;;;;;8.18;6.57;;;23.60;99.90;;;;;;5071911;28;20035;-55
2023/11/17 07:54:01;;;;;;;9.50;7.13;;;23.60;99.90;;;;;;5072226;28;20021;-55
2023/11/17 07:56:27;;;;;;;9.10;7.30;;;23.60;99.90;;;;;;5071914;28;20101;-55
2023/11/17 07:58:54;;;;;;;8.93;6.80;;;23.60;99.90;;;;;;5071935;28;20400;-55
2023/11/17 08:01:20;;;;;;;10.37;7.40;;;23.70;99.90;;;;;;5071659;28;20085;-55
2023/11/17 08:03:46;;;;;;;9.70;8.10;;;23.70;99.90;;;;;;5071861;28;20024;-55
2023/11/17 08:06:12;;;;;;;9.68;7.80;;;23.70;99.90;;;;;;5071882;28;20477;-55
2023/11/17 08:08:40;;;;;;;8.27;6.97;;;23.70;99.90;;;;;;5071889;28;20025;-55
2023/11/17 08:11:07;;;;;;;8.45;6.90;;;23.80;99.90;;;;;;5071791;28;20074;-55
2023/11/17 08:13:33;;;;;;;10.80;7.53;;;23.80;99.90;;;;;;5071728;28;20017;-54
2023/11/17 08:16:00;;;;;;;10.20;7.43;;;23.90;99.90;;;;;;5053978;28;20304;-55
2023/11/17 08:18:26;;;;;;;9.35;6.57;;;23.90;99.90;;;;;;5071643;28;20104;-56
2023/11/17 08:20:52;;;;;;;10.07;6.68;;;23.90;99.90;;;;;;5071616;28;20112;-55
2023/11/17 08:23:19;;;;;;;8.98;7.38;;;23.90;99.90;;;;;;5071624;28;20035;-55
2023/11/17 08:25:45;;;;;;;9.88;7.68;;;24.00;99.90;;;;;;5053637;28;20396;-55
2023/11/17 08:28:11;;;;;;;10.20;7.13;;;24.00;99.90;;;;;;5053957;28;20035;-55
2023/11/17 08:30:41;;;;;;;11.40;7.38;;;24.00;99.90;;;;;;5071598;28;20482;-55
2023/11/17 08:33:09;;;;;;;8.30;6.65;;;24.00;99.90;;;;;;5071599;28;20048;-56
2023/11/17 08:35:36;;;;;;;8.73;6.72;;;24.10;99.90;;;;;;5071650;28;20028;-55
2023/11/17 08:38:02;;;;;;;10.07;7.43;;;24.10;99.90;;;;;;5071536;28;20020;-55
2023/11/17 08:40:28;;;;;;;11.05;7.00;;;24.10;99.90;;;;;;5071377;28;20431;-55
2023/11/17 08:42:54;;;;;;;8.05;6.50;;;24.20;99.90;;;;;;5071303;28;20039;-55
2023/11/17 08:45:19;;;;;;;12.40;7.28;;;24.20;99.90;;;;;;5071302;28;20123;-55
2023/11/17 08:47:49;;;;;;;9.00;7.00;;;24.20;99.90;;;;;;5053410;28;20150;-55
2023/11/17 08:50:15;;;;;;;8.50;6.97;;;24.30;99.90;;;;;;5071172;28;20491;-55
2023/11/17 08:52:44;;;;;;;10.38;7.22;;;24.30;99.90;;;;;;5071350;28;20013;-55
2023/11/17 08:55:13;;;;;;;8.77;6.57;;;24.30;99.90;;;;;;5071665;28;20021;-55
2023/11/17 08:57:41;;;;;;;7.85;6.63;;;24.40;99.90;;;;;;5074928;28;20487;-55
2023/11/17 09:00:12;;;;;;;9.60;6.95;;;24.40;99.90;;;;;;5074741;28;20079;-55
2023/11/17 09:02:45;;;;;;;7.93;6.63;;;24.40;99.90;;;;;;5074603;28;20040;-55
2023/11/17 09:05:11;;;;;;;7.53;6.72;;;24.50;99.90;;;;;;5074585;28;20487;-55
2023/11/17 09:07:41;;;;;;;7.93;7.00;;;24.50;99.90;;;;;;5074756;28;20415;-55
2023/11/17 09:10:09;;;;;;;8.75;7.28;;;24.50;99.90;;;;;;5074722;28;20028;-55
2023/11/17 09:12:42;;;;;;;9.98;7.80;;;24.50;99.90;;;;;;5074605;28;20568;-55
2023/11/17 09:15:13;;;;;;;9.43;7.20;;;24.60;99.90;;;;;;5074428;28;20029;-55
2023/11/17 09:17:42;;;;;;;8.98;6.90;;;24.60;99.90;;;;;;5074361;28;20029;-54
2023/11/17 09:20:13;;;;;;;10.13;6.55;;;24.70;99.90;;;;;;5074375;28;20028;-55
2023/11/17 09:22:42;;;;;;;7.95;6.38;;;24.70;99.90;;;;;;5074424;28;20492;-54
2023/11/17 09:25:18;;;;;;;11.15;6.35;;;24.70;99.90;;;;;;5074459;28;20163;-55
2023/11/17 09:27:46;;;;;;;8.63;6.68;;;24.80;99.90;;;;;;5074222;28;20082;-55
2023/11/17 09:30:12;;;;;;;8.48;6.93;;;24.80;99.90;;;;;;5074334;28;20021;-55
2023/11/17 09:32:59;;;;;;;7.95;6.65;;;24.90;99.90;;;;;;5074413;28;20124;-55
2023/11/17 09:35:26;;;;;;;9.23;6.72;;;24.90;99.90;;;;;;5074186;28;20477;-55
2023/11/17 09:37:58;;;;;;;;;;;25.00;99.90;;;;;;5074713;28;20086;-55
2023/11/17 09:40:26;;;;;;;9.45;6.70;;;25.00;99.90;;;;;;5074048;28;19955;-55
2023/11/17 09:42:57;;;;;;;;;;;25.00;99.90;;;;;;5074590;28;20089;-55
2023/11/17 09:45:32;;;;;;;8.35;6.45;;;25.10;99.90;;;;;;5071976;28;20302;-55
2023/11/17 09:48:01;;;;;;;8.18;6.85;;;25.10;99.90;;;;;;5061265;28;20040;-54
2023/11/17 09:50:30;;;;;;;6.97;6.05;;;25.20;99.90;;;;;;5065281;28;20528;-55
2023/11/17 09:52:59;;;;;;;7.85;6.10;;;25.20;99.90;;;;;;5073308;28;20047;-55
2023/11/17 09:55:28;;;;;;;8.60;6.28;;;25.30;99.90;;;;;;5056091;28;20032;-55
2023/11/17 09:57:57;;;;;;;6.68;5.20;;;25.30;99.90;;;;;;5055371;28;20529;-54
2023/11/17 10:00:27;;;;;;;7.57;5.40;;;25.40;99.90;;;;;;5055202;28;20476;-54
2023/11/17 10:02:59;;;;;;;7.55;5.68;;;25.40;99.90;;;;;;5055455;28;20468;-54
2023/11/17 10:05:28;;;;;;;7.32;5.43;;;25.50;99.90;;;;;;5072658;28;20035;-54
2023/11/17 10:08:12;;;;;;;7.50;5.05;;;25.50;99.90;;;;;;5073075;28;20020;-55
2023/11/17 10:10:42;;;;;;;8.35;5.47;;;25.60;99.90;;;;;;5073672;28;20488;-55
2023/11/17 10:13:11;;;;;;;7.80;5.82;;;25.60;99.90;;;;;;5072768;28;20025;-55
2023/11/17 10:15:50;;;;;;;8.80;5.38;;;25.70;99.90;;;;;;5056160;28;20473;-55
2023/11/17 10:18:29;;;;;;;7.82;5.57;;;25.80;99.90;;;;;;5073266;28;20020;-55
2023/11/17 10:20:57;;;;;;;11.73;5.78;;;25.80;99.90;;;;;;5055450;28;20445;-55
2023/11/17 10:23:23;;;;;;;9.02;6.45;;;25.90;99.90;;;;;;5073424;28;20028;-54
2023/11/17 10:25:58;;;;;;;6.80;5.28;;;25.90;99.90;;;;;;5073111;28;20432;-55
2023/11/17 10:28:26;;;;;;;8.05;5.60;;;26.00;99.90;;;;;;5073100;28;20029;-55
2023/11/17 10:30:56;;;;;;;9.25;5.80;;;26.10;99.90;;;;;;5073299;28;20031;-55
2023/11/17 10:33:34;;;;;;;7.13;5.43;;;26.10;99.90;;;;;;5073168;28;20423;-55
2023/11/17 10:36:12;;;;;;;8.70;5.25;;;26.10;99.90;;;;;;5055048;28;20480;-55
2023/11/17 10:38:39;;;;;;;;;;;26.20;99.90;;;;;;5073263;28;20047;-55
2023/11/17 10:41:34;;;;;;;9.85;5.10;;;26.20;99.90;;;;;;5072823;28;19919;-55
2023/11/17 10:44:01;;;;;;;5.70;5.10;;;26.30;99.90;;;;;;5072383;28;20039;-55
2023/11/17 10:46:44;;;;;;;6.22;4.63;;;26.30;99.90;;;;;;5072885;28;20028;-54
2023/11/17 10:49:17;;;;;;;6.07;4.93;;;26.40;99.90;;;;;;5072826;28;20099;-54
2023/11/17 10:51:47;;;;;;;6.35;4.68;;;26.40;99.90;;;;;;5072698;28;20024;-54
2023/11/17 10:54:13;;;;;;;6.10;5.07;;;26.50;99.90;;;;;;5038561;28;20499;-55
2023/11/17 10:56:40;;;;;;;7.75;5.53;;;26.50;99.90;;;;;;5072436;28;20020;-55
2023/11/17 10:59:09;;;;;;;6.78;5.03;;;26.50;99.90;;;;;;5072585;28;20103;-55
2023/11/17 11:01:40;;;;;;;6.95;5.40;;;26.60;99.90;;;;;;5072451;28;20420;-55
2023/11/17 11:04:12;;;;;;;5.50;4.78;;;26.60;99.90;;;;;;5054920;28;20099;-55
2023/11/17 11:06:40;;;;;;;7.05;4.63;;;26.60;99.90;;;;;;5072577;28;20054;-56
2023/11/17 11:09:07;;;;;;;6.97;4.45;;;26.70;99.90;;;;;;5072471;28;20029;-56
2023/11/17 11:11:33;;;;;;;11.05;4.72;;;26.70;99.90;;;;;;5072409;28;20055;-56
2023/11/17 11:14:03;;;;;;;8.48;5.05;;;26.70;99.90;;;;;;5054377;28;20029;-56
2023/11/17 11:16:32;;;;;;;7.53;5.18;;;26.80;99.90;;;;;;5072301;28;20031;-56
2023/11/17 11:18:59;;;;;;;13.60;5.15;;;26.80;99.90;;;;;;5071674;28;20028;-56
2023/11/17 11:21:35;;;;;;;7.47;4.63;;;26.80;99.90;;;;;;5072365;28;20388;-56
2023/11/17 11:24:04;;;;;;;7.50;4.43;;;26.90;99.90;;;;;;5072256;28;20028;-56
2023/11/17 11:26:35;;;;;;;9.00;4.57;;;26.90;99.90;;;;;;5072041;28;20028;-56
2023/11/17 11:29:04;;;;;;;7.93;5.22;;;26.90;99.90;;;;;;5072067;28;20473;-55
2023/11/17 11:31:31;;;;;;;16.48;6.32;;;26.90;99.90;;;;;;5054086;28;20035;-56
2023/11/17 11:33:58;;;;;;;7.28;4.75;;;27.00;99.90;;;;;;5072496;28;20087;-56
2023/11/17 11:36:24;;;;;;;7.10;4.88;;;27.00;99.90;;;;;;5072020;28;20115;-56
2023/11/17 11:38:50;;;;;;;9.55;4.45;;;27.00;99.90;;;;;;5071975;28;20100;-56
2023/11/17 11:41:18;;;;;;;5.50;4.18;;;27.00;99.90;;;;;;5071946;28;20048;-56
2023/11/17 11:43:45;;;;;;;8.65;4.78;;;27.00;99.90;;;;;;5072165;28;20369;-56
2023/11/17 11:46:16;;;;;;;11.68;4.68;;;27.10;99.90;;;;;;5071805;28;20060;-56
2023/11/17 11:48:49;;;;;;;5.63;4.90;;;27.20;99.90;;;;;;5071884;28;20020;-55
2023/11/17 11:51:16;;;;;;;6.78;4.35;;;27.20;99.90;;;;;;5071995;28;20021;-56
2023/11/17 11:54:11;;;;;;;7.97;4.55;;;27.20;99.90;;;;;;5054062;28;20404;-56
2023/11/17 11:56:40;;;;;;;6.28;4.72;;;27.20;99.90;;;;;;5071704;28;20104;-56
2023/11/17 11:59:06;;;;;;;7.88;4.88;;;27.20;99.90;;;;;;5071596;28;20021;-56
2023/11/17 12:01:36;;;;;;;7.38;4.55;;;27.20;99.90;;;;;;5063123;28;20126;-55
2023/11/17 12:04:05;;;;;;;7.90;5.95;;;27.20;99.90;;;;;;5062038;28;20056;-54
2023/11/17 12:06:33;;;;;;;8.75;5.57;;;27.10;99.90;;;;;;5060854;28;20029;-55
2023/11/17 12:09:08;;;;;;;10.82;5.70;;;27.00;99.90;;;;;;5050621;28;20100;-57
2023/11/17 12:11:44;;;;;;;9.40;5.72;;;26.90;99.90;;;;;;5051508;28;20056;-54
2023/11/17 12:14:12;;;;;;;8.43;6.00;;;26.80;99.90;;;;;;5050027;28;20095;-50
2023/11/17 12:16:38;;;;;;;10.25;4.80;;;26.60;99.90;;;;;;5036780;28;20408;-52
2023/11/17 12:19:09;;;;;;;5.93;4.57;;;26.60;99.90;;;;;;5034679;28;20100;-54
2023/11/17 12:21:38;;;;;;;5.05;4.07;;;26.60;99.90;;;;;;5050589;28;20124;-56
2023/11/17 12:24:13;;;;;;;12.70;6.40;;;26.60;99.90;;;;;;5056923;28;20504;-54
2023/11/17 12:26:41;;;;;;;9.10;6.57;;;26.60;99.90;;;;;;5050945;28;20033;-55
2023/11/17 12:29:15;;;;;;;41.20;34.42;;;26.60;99.90;;;;;;5050656;28;20025;-55
2023/11/17 12:31:43;;;;;;;126.07;97.32;;;26.70;99.90;;;;;;5054631;28;20476;-53
2023/11/17 12:34:11;;;;;;;201.98;160.20;;;26.80;99.90;;;;;;5054229;28;20017;-53
2023/11/17 12:36:37;;;;;;;195.77;154.82;;;26.80;99.90;;;;;;5054540;28;20025;-53
2023/11/17 12:39:15;;;;;;;186.32;136.05;;;26.90;99.90;;;;;;5036052;28;20083;-54
2023/11/17 12:41:50;;;;;;;210.70;143.52;;;26.90;99.90;;;;;;5054201;28;20120;-53
2023/11/17 12:44:20;;;;;;;174.05;126.95;;;27.00;99.90;;;;;;5053900;28;20431;-53
2023/11/17 12:46:47;;;;;;;164.30;122.65;;;27.00;99.90;;;;;;5062565;28;20032;-55
2023/11/17 12:49:14;;;;;;;157.18;112.32;;;27.10;99.90;;;;;;5052933;28;20020;-51
2023/11/17 12:51:40;;;;;;;139.00;100.88;;;27.20;99.90;;;;;;5052352;28;20594;-55
2023/11/17 12:54:06;;;;;;;133.65;96.63;;;27.20;99.90;;;;;;5071059;28;20648;-53
2023/11/17 12:56:32;;;;;;;130.93;92.45;;;27.20;99.90;;;;;;5057357;28;20021;-54